This is the latest recevied weather packets stored in our database for station/object SP5MRF-12. If no packets are shown the sender has not sent any weather packets the latest 10 day(s).
| Time | Temp. | Humidity | Pressure | Rain* | Wind** | Luminosity | Snow |
|---|---|---|---|---|---|---|---|
| 1788085043 | 18.89° C | 41% | 1008.5 hPa | - | - | - | - |
| 1788084322 | 23.89° C | 41% | 1016.4 hPa | - | - | - | - |
| 1788083602 | 23.33° C | 41% | 1016.5 hPa | - | - | - | - |
| 1788082882 | 18.33° C | 41% | 1009.1 hPa | - | - | - | - |
| 1788082162 | 22.78° C | 41% | 1016.6 hPa | - | - | - | - |
| 1788081442 | 22.78° C | 41% | 1016.7 hPa | - | - | - | - |
| 1788080722 | 22.78° C | 41% | 1016.7 hPa | - | - | - | - |
| 1788080002 | 22.22° C | 41% | 1016.8 hPa | - | - | - | - |
| 1788079281 | 22.22° C | 41% | 1016.9 hPa | - | - | - | - |
| 1788078561 | 21.67° C | 41% | 1016.9 hPa | - | - | - | - |
| 1788077841 | 21.67° C | 41% | 1016.8 hPa | - | - | - | - |
| 1788077121 | 21.67° C | 42% | 1016.9 hPa | - | - | - | - |
| 1788076401 | 21.11° C | 42% | 1016.9 hPa | - | - | - | - |
| 1788075681 | 21.11° C | 42% | 1016.9 hPa | - | - | - | - |
| 1788074961 | 21.11° C | 42% | 1016.9 hPa | - | - | - | - |
| 1788074241 | 21.11° C | 42% | 1016.9 hPa | - | - | - | - |
| 1788073521 | 14.44° C | 42% | 1006.4 hPa | - | - | - | - |
| 1788072800 | 21.11° C | 42% | 1016.9 hPa | - | - | - | - |
| 1788072080 | 21.11° C | 42% | 1016.9 hPa | - | - | - | - |
| 1788071360 | 21.11° C | 42% | 1017 hPa | - | - | - | - |
| 1788070640 | 21.11° C | 42% | 1016.8 hPa | - | - | - | - |
| 1788069920 | 21.11° C | 42% | 1016.9 hPa | - | - | - | - |
| 1788069200 | 21.11° C | 42% | 1016.9 hPa | - | - | - | - |
| 1788068480 | 21.11° C | 42% | 1016.9 hPa | - | - | - | - |
| 1788067759 | 21.11° C | 42% | 1017 hPa | - | - | - | - |
* Rain since midnight (hover to see other rain measurements)
** Current wind speed in m/s (hover to see current wind gust speed)